sensor_id;sensor_type;location;lat;lon;timestamp;pressure;altitude;pressure_sealevel;temperature;humidity
61318;BME280;47201;40.428;-8.436;2023-09-19T00:00:29;100998.47;;;15.02;100.00
61318;BME280;47201;40.428;-8.436;2023-09-19T00:02:29;100995.91;;;14.98;100.00
61318;BME280;47201;40.428;-8.436;2023-09-19T00:04:33;101002.91;;;14.97;100.00
61318;BME280;47201;40.428;-8.436;2023-09-19T00:06:36;101006.53;;;14.91;100.00
61318;BME280;47201;40.428;-8.436;2023-09-19T00:08:37;101003.06;;;14.89;100.00
61318;BME280;47201;40.428;-8.436;2023-09-19T00:10:38;100991.63;;;14.90;100.00
61318;BME280;47201;40.428;-8.436;2023-09-19T00:12:43;100995.13;;;14.93;100.00
61318;BME280;47201;40.428;-8.436;2023-09-19T00:14:44;100996.94;;;14.89;100.00
61318;BME280;47201;40.428;-8.436;2023-09-19T00:16:44;100996.97;;;14.86;100.00
61318;BME280;47201;40.428;-8.436;2023-09-19T00:18:47;100993.53;;;14.81;100.00
61318;BME280;47201;40.428;-8.436;2023-09-19T00:20:49;100993.56;;;14.78;100.00
61318;BME280;47201;40.428;-8.436;2023-09-19T00:22:51;100989.91;;;14.88;100.00
61318;BME280;47201;40.428;-8.436;2023-09-19T00:24:53;100988.94;;;14.95;100.00
61318;BME280;47201;40.428;-8.436;2023-09-19T00:26:55;100994.22;;;14.92;100.00
61318;BME280;47201;40.428;-8.436;2023-09-19T00:28:56;100991.63;;;14.90;100.00
61318;BME280;47201;40.428;-8.436;2023-09-19T00:30:57;100991.56;;;14.95;100.00
61318;BME280;47201;40.428;-8.436;2023-09-19T00:33:01;101002.16;;;14.90;100.00
61318;BME280;47201;40.428;-8.436;2023-09-19T00:35:06;101002.28;;;14.81;100.00
61318;BME280;47201;40.428;-8.436;2023-09-19T00:37:09;100997.22;;;14.67;100.00
61318;BME280;47201;40.428;-8.436;2023-09-19T00:39:12;100996.41;;;14.60;100.00
61318;BME280;47201;40.428;-8.436;2023-09-19T00:41:12;100998.09;;;14.65;100.00
61318;BME280;47201;40.428;-8.436;2023-09-19T00:43:13;101001.63;;;14.62;100.00
61318;BME280;47201;40.428;-8.436;2023-09-19T00:45:15;100988.47;;;14.65;100.00
61318;BME280;47201;40.428;-8.436;2023-09-19T00:47:17;100990.94;;;14.78;100.00
61318;BME280;47201;40.428;-8.436;2023-09-19T00:49:18;100982.00;;;14.89;100.00
61318;BME280;47201;40.428;-8.436;2023-09-19T00:51:22;100988.06;;;14.93;100.00
61318;BME280;47201;40.428;-8.436;2023-09-19T00:53:25;100989.03;;;14.89;100.00
61318;BME280;47201;40.428;-8.436;2023-09-19T00:55:29;100992.66;;;14.82;100.00
61318;BME280;47201;40.428;-8.436;2023-09-19T00:57:30;100988.31;;;14.78;100.00
61318;BME280;47201;40.428;-8.436;2023-09-19T00:59:33;100982.91;;;14.87;100.00
61318;BME280;47201;40.428;-8.436;2023-09-19T01:01:35;100986.47;;;14.83;100.00
61318;BME280;47201;40.428;-8.436;2023-09-19T01:03:41;100988.31;;;14.78;100.00
61318;BME280;47201;40.428;-8.436;2023-09-19T01:05:41;100980.56;;;14.67;100.00
61318;BME280;47201;40.428;-8.436;2023-09-19T01:07:43;100985.06;;;14.57;100.00
61318;BME280;47201;40.428;-8.436;2023-09-19T01:09:49;100974.66;;;14.48;100.00
61318;BME280;47201;40.428;-8.436;2023-09-19T01:11:50;100978.91;;;14.58;100.00
61318;BME280;47201;40.428;-8.436;2023-09-19T01:21:28;100961.44;;;14.52;100.00
61318;BME280;47201;40.428;-8.436;2023-09-19T01:28:14;100966.56;;;14.63;100.00
61318;BME280;47201;40.428;-8.436;2023-09-19T01:30:21;100967.50;;;14.57;100.00
61318;BME280;47201;40.428;-8.436;2023-09-19T01:32:25;100970.19;;;14.54;100.00
61318;BME280;47201;40.428;-8.436;2023-09-19T01:34:26;100972.84;;;14.51;100.00
61318;BME280;47201;40.428;-8.436;2023-09-19T01:36:28;100975.56;;;14.45;100.00
61318;BME280;47201;40.428;-8.436;2023-09-19T01:38:30;100976.47;;;14.41;100.00
61318;BME280;47201;40.428;-8.436;2023-09-19T01:40:30;100974.91;;;14.29;100.00
61318;BME280;47201;40.428;-8.436;2023-09-19T01:45:03;100973.19;;;14.25;100.00
61318;BME280;47201;40.428;-8.436;2023-09-19T01:47:17;100980.84;;;14.43;100.00
61318;BME280;47201;40.428;-8.436;2023-09-19T01:49:37;100980.75;;;14.51;100.00
61318;BME280;47201;40.428;-8.436;2023-09-19T01:51:55;100980.72;;;14.53;100.00
61318;BME280;47201;40.428;-8.436;2023-09-19T01:54:03;100984.31;;;14.47;100.00
61318;BME280;47201;40.428;-8.436;2023-09-19T01:56:08;100974.75;;;14.41;100.00
61318;BME280;47201;40.428;-8.436;2023-09-19T01:58:31;100973.84;;;14.41;100.00
61318;BME280;47201;40.428;-8.436;2023-09-19T02:00:36;100976.34;;;14.53;100.00
61318;BME280;47201;40.428;-8.436;2023-09-19T02:02:40;100970.03;;;14.67;100.00
61318;BME280;47201;40.428;-8.436;2023-09-19T02:04:42;100963.03;;;14.66;100.00
61318;BME280;47201;40.428;-8.436;2023-09-19T02:06:43;100963.88;;;14.68;100.00
61318;BME280;47201;40.428;-8.436;2023-09-19T02:08:44;100967.44;;;14.62;100.00
61318;BME280;47201;40.428;-8.436;2023-09-19T02:10:48;100967.53;;;14.56;100.00
61318;BME280;47201;40.428;-8.436;2023-09-19T02:12:50;100959.81;;;14.42;100.00
61318;BME280;47201;40.428;-8.436;2023-09-19T02:14:51;100957.34;;;14.33;100.00
61318;BME280;47201;40.428;-8.436;2023-09-19T02:16:51;100960.94;;;14.24;100.00
61318;BME280;47201;40.428;-8.436;2023-09-19T02:18:52;100958.44;;;14.15;100.00
61318;BME280;47201;40.428;-8.436;2023-09-19T02:20:53;100959.53;;;13.95;100.00
61318;BME280;47201;40.428;-8.436;2023-09-19T02:22:54;100956.16;;;13.82;100.00
61318;BME280;47201;40.428;-8.436;2023-09-19T02:24:55;100951.94;;;13.67;100.00
61318;BME280;47201;40.428;-8.436;2023-09-19T02:26:59;100948.63;;;13.51;100.00
61318;BME280;47201;40.428;-8.436;2023-09-19T02:29:05;100942.56;;;13.43;100.00
61318;BME280;47201;40.428;-8.436;2023-09-19T02:31:05;100943.47;;;13.39;100.00
61318;BME280;47201;40.428;-8.436;2023-09-19T02:33:06;100944.38;;;13.31;100.00
61318;BME280;47201;40.428;-8.436;2023-09-19T02:35:07;100944.34;;;13.33;100.00
61318;BME280;47201;40.428;-8.436;2023-09-19T02:37:08;100944.41;;;13.30;100.00
61318;BME280;47201;40.428;-8.436;2023-09-19T02:39:13;100943.53;;;13.28;100.00
61318;BME280;47201;40.428;-8.436;2023-09-19T02:41:14;100939.94;;;13.37;100.00
61318;BME280;47201;40.428;-8.436;2023-09-19T02:43:15;100932.94;;;13.42;100.00
61318;BME280;47201;40.428;-8.436;2023-09-19T02:45:17;100932.88;;;13.48;100.00
61318;BME280;47201;40.428;-8.436;2023-09-19T02:47:20;100932.78;;;13.59;100.00
61318;BME280;47201;40.428;-8.436;2023-09-19T02:49:21;100931.91;;;13.58;100.00
61318;BME280;47201;40.428;-8.436;2023-09-19T02:51:22;100923.16;;;13.58;100.00
61318;BME280;47201;40.428;-8.436;2023-09-19T02:53:22;100932.78;;;13.59;100.00
61318;BME280;47201;40.428;-8.436;2023-09-19T02:55:24;100923.16;;;13.56;100.00
61318;BME280;47201;40.428;-8.436;2023-09-19T02:57:25;100925.72;;;13.62;100.00
61318;BME280;47201;40.428;-8.436;2023-09-19T02:59:25;100919.63;;;13.62;100.00
61318;BME280;47201;40.428;-8.436;2023-09-19T03:01:27;100925.72;;;13.62;100.00
61318;BME280;47201;40.428;-8.436;2023-09-19T03:03:28;100923.09;;;13.66;100.00
61318;BME280;47201;40.428;-8.436;2023-09-19T03:05:29;100916.88;;;13.71;100.00
61318;BME280;47201;40.428;-8.436;2023-09-19T03:07:33;100922.06;;;13.76;100.00
61318;BME280;47201;40.428;-8.436;2023-09-19T03:09:34;100913.38;;;13.71;100.00
61318;BME280;47201;40.428;-8.436;2023-09-19T03:11:35;100915.16;;;13.69;100.00
61318;BME280;47201;40.428;-8.436;2023-09-19T03:13:36;100905.50;;;13.71;100.00
61318;BME280;47201;40.428;-8.436;2023-09-19T03:15:41;100908.84;;;13.85;100.00
61318;BME280;47201;40.428;-8.436;2023-09-19T03:17:48;100907.91;;;13.89;100.00
61318;BME280;47201;40.428;-8.436;2023-09-19T03:19:53;100907.06;;;13.86;100.00
61318;BME280;47201;40.428;-8.436;2023-09-19T03:21:54;100908.09;;;13.75;100.00
61318;BME280;47201;40.428;-8.436;2023-09-19T03:23:58;100902.84;;;13.72;100.00
61318;BME280;47201;40.428;-8.436;2023-09-19T03:25:58;100905.56;;;13.66;100.00
61318;BME280;47201;40.428;-8.436;2023-09-19T03:27:59;100904.66;;;13.69;100.00
61318;BME280;47201;40.428;-8.436;2023-09-19T03:30:01;100905.38;;;13.82;100.00
61318;BME280;47201;40.428;-8.436;2023-09-19T03:32:06;100903.63;;;13.84;100.00
61318;BME280;47201;40.428;-8.436;2023-09-19T03:34:07;100904.41;;;13.89;100.00
61318;BME280;47201;40.428;-8.436;2023-09-19T03:36:08;100911.34;;;13.96;100.00
61318;BME280;47201;40.428;-8.436;2023-09-19T03:38:09;100908.59;;;14.05;100.00
61318;BME280;47201;40.428;-8.436;2023-09-19T03:40:10;100899.84;;;14.06;100.00
61318;BME280;47201;40.428;-8.436;2023-09-19T03:42:11;100903.25;;;14.11;100.00
61318;BME280;47201;40.428;-8.436;2023-09-19T03:44:12;100904.16;;;14.07;100.00
61318;BME280;47201;40.428;-8.436;2023-09-19T03:46:13;100906.94;;;13.98;100.00
61318;BME280;47201;40.428;-8.436;2023-09-19T03:48:18;100906.19;;;13.87;100.00
61318;BME280;47201;40.428;-8.436;2023-09-19T03:50:20;100898.47;;;13.71;100.00
61318;BME280;47201;40.428;-8.436;2023-09-19T03:52:21;100902.94;;;13.64;100.00
61318;BME280;47201;40.428;-8.436;2023-09-19T03:54:22;100909.13;;;13.62;100.00
61318;BME280;47201;40.428;-8.436;2023-09-19T03:56:22;100907.31;;;13.64;100.00
61318;BME280;47201;40.428;-8.436;2023-09-19T03:58:23;100898.53;;;13.68;100.00
61318;BME280;47201;40.428;-8.436;2023-09-19T04:00:24;100899.41;;;13.67;100.00
61318;BME280;47201;40.428;-8.436;2023-09-19T04:02:26;100894.13;;;13.69;100.00
61318;BME280;47201;40.428;-8.436;2023-09-19T04:04:33;100896.72;;;13.73;100.00
61318;BME280;47201;40.428;-8.436;2023-09-19T04:06:34;100895.75;;;13.80;100.00
61318;BME280;47201;40.428;-8.436;2023-09-19T04:08:37;100887.94;;;13.77;100.00
61318;BME280;47201;40.428;-8.436;2023-09-19T04:10:38;100887.91;;;13.76;100.00
61318;BME280;47201;40.428;-8.436;2023-09-19T04:12:39;100883.59;;;13.72;100.00
61318;BME280;47201;40.428;-8.436;2023-09-19T04:14:40;100882.75;;;13.67;100.00
61318;BME280;47201;40.428;-8.436;2023-09-19T04:16:41;100883.72;;;13.59;100.00
61318;BME280;47201;40.428;-8.436;2023-09-19T04:18:42;100873.31;;;13.52;100.00
61318;BME280;47201;40.428;-8.436;2023-09-19T04:20:47;100869.81;;;13.49;100.00
61318;BME280;47201;40.428;-8.436;2023-09-19T04:22:49;100860.34;;;13.39;100.00
61318;BME280;47201;40.428;-8.436;2023-09-19T04:24:51;100869.84;;;13.48;100.00
61318;BME280;47201;40.428;-8.436;2023-09-19T04:26:51;100877.69;;;13.53;100.00
61318;BME280;47201;40.428;-8.436;2023-09-19T04:28:53;100870.66;;;13.53;100.00
61318;BME280;47201;40.428;-8.436;2023-09-19T04:30:53;100876.81;;;13.54;100.00
61318;BME280;47201;40.428;-8.436;2023-09-19T04:32:55;100873.28;;;13.53;100.00
61318;BME280;47201;40.428;-8.436;2023-09-19T04:34:56;100874.19;;;13.51;100.00
61318;BME280;47201;40.428;-8.436;2023-09-19T04:37:00;100862.88;;;13.45;100.00
61318;BME280;47201;40.428;-8.436;2023-09-19T04:39:01;100862.97;;;13.39;100.00
61318;BME280;47201;40.428;-8.436;2023-09-19T04:41:05;100869.09;;;13.38;100.00
61318;BME280;47201;40.428;-8.436;2023-09-19T04:43:06;100864.69;;;13.42;100.00
61318;BME280;47201;40.428;-8.436;2023-09-19T04:45:08;100865.47;;;13.48;100.00
61318;BME280;47201;40.428;-8.436;2023-09-19T04:47:10;100859.31;;;13.49;100.00
61318;BME280;47201;40.428;-8.436;2023-09-19T04:49:13;100856.59;;;13.62;100.00
61318;BME280;47201;40.428;-8.436;2023-09-19T04:51:13;100852.06;;;13.70;100.00
61318;BME280;47201;40.428;-8.436;2023-09-19T04:53:18;100853.72;;;13.80;100.00
61318;BME280;47201;40.428;-8.436;2023-09-19T04:55:21;100851.97;;;13.79;100.00
61318;BME280;47201;40.428;-8.436;2023-09-19T04:57:21;100853.53;;;13.94;100.00
61318;BME280;47201;40.428;-8.436;2023-09-19T04:59:23;100852.66;;;13.95;100.00
61318;BME280;47201;40.428;-8.436;2023-09-19T05:01:23;100854.50;;;13.89;100.00
61318;BME280;47201;40.428;-8.436;2023-09-19T05:03:24;100856.19;;;13.91;100.00
61318;BME280;47201;40.428;-8.436;2023-09-19T05:05:25;100844.84;;;13.88;100.00
61318;BME280;47201;40.428;-8.436;2023-09-19T05:07:26;100859.75;;;13.89;100.00
61318;BME280;47201;40.428;-8.436;2023-09-19T05:09:27;100860.56;;;13.92;100.00
61318;BME280;47201;40.428;-8.436;2023-09-19T05:11:27;100853.53;;;13.93;100.00
61318;BME280;47201;40.428;-8.436;2023-09-19T05:13:30;100856.25;;;13.87;100.00
61318;BME280;47201;40.428;-8.436;2023-09-19T05:15:31;100866.00;;;13.80;100.00
61318;BME280;47201;40.428;-8.436;2023-09-19T05:17:32;100862.63;;;13.69;100.00
61318;BME280;47201;40.428;-8.436;2023-09-19T05:19:33;100861.84;;;13.59;100.00
61318;BME280;47201;40.428;-8.436;2023-09-19T05:21:35;100868.03;;;13.55;100.00
61318;BME280;47201;40.428;-8.436;2023-09-19T05:23:36;100859.34;;;13.51;100.00
61318;BME280;47201;40.428;-8.436;2023-09-19T05:25:38;100855.84;;;13.49;100.00
61318;BME280;47201;40.428;-8.436;2023-09-19T05:27:39;100862.00;;;13.46;100.00
61318;BME280;47201;40.428;-8.436;2023-09-19T05:29:40;100868.19;;;13.41;100.00
61318;BME280;47201;40.428;-8.436;2023-09-19T05:31:42;100867.38;;;13.31;100.00
61318;BME280;47201;40.428;-8.436;2023-09-19T05:33:43;100871.84;;;13.23;100.00
61318;BME280;47201;40.428;-8.436;2023-09-19T05:35:44;100870.06;;;13.23;100.00
61318;BME280;47201;40.428;-8.436;2023-09-19T05:37:48;100868.22;;;13.35;100.00
61318;BME280;47201;40.428;-8.436;2023-09-19T05:39:51;100875.16;;;13.43;100.00
61318;BME280;47201;40.428;-8.436;2023-09-19T05:41:51;100872.34;;;13.62;100.00
61318;BME280;47201;40.428;-8.436;2023-09-19T05:43:52;100879.13;;;13.78;100.00
61318;BME280;47201;40.428;-8.436;2023-09-19T05:45:53;100885.09;;;13.94;100.00
61318;BME280;47201;40.428;-8.436;2023-09-19T05:48:07;100880.63;;;14.00;100.00
61318;BME280;47201;40.428;-8.436;2023-09-19T05:50:09;100884.09;;;14.03;100.00
61318;BME280;47201;40.428;-8.436;2023-09-19T05:52:10;100889.28;;;14.08;100.00
61318;BME280;47201;40.428;-8.436;2023-09-19T05:54:10;100892.78;;;14.08;100.00
61318;BME280;47201;40.428;-8.436;2023-09-19T05:56:11;100889.31;;;14.06;100.00
61318;BME280;47201;40.428;-8.436;2023-09-19T05:58:14;100890.28;;;13.98;100.00
61318;BME280;47201;40.428;-8.436;2023-09-19T06:00:14;100888.56;;;13.95;100.00
61318;BME280;47201;40.428;-8.436;2023-09-19T06:02:18;100890.41;;;13.87;100.00
61318;BME280;47201;40.428;-8.436;2023-09-19T06:04:20;100891.38;;;13.79;100.00
61318;BME280;47201;40.428;-8.436;2023-09-19T06:06:21;100887.09;;;13.72;100.00
61318;BME280;47201;40.428;-8.436;2023-09-19T06:08:22;100891.47;;;13.70;100.00
61318;BME280;47201;40.428;-8.436;2023-09-19T06:10:23;100888.03;;;13.65;100.00
61318;BME280;47201;40.428;-8.436;2023-09-19T06:12:23;100888.03;;;13.65;100.00
61318;BME280;47201;40.428;-8.436;2023-09-19T06:14:24;100892.41;;;13.66;100.00
61318;BME280;47201;40.428;-8.436;2023-09-19T06:16:25;100887.13;;;13.68;100.00
61318;BME280;47201;40.428;-8.436;2023-09-19T06:18:26;100885.28;;;13.77;100.00
61318;BME280;47201;40.428;-8.436;2023-09-19T06:20:28;100886.03;;;13.86;100.00
61318;BME280;47201;40.428;-8.436;2023-09-19T06:22:28;100881.56;;;13.95;100.00
61318;BME280;47201;40.428;-8.436;2023-09-19T06:24:29;100890.28;;;13.99;100.00
61318;BME280;47201;40.428;-8.436;2023-09-19T06:26:30;100889.31;;;14.05;100.00
61318;BME280;47201;40.428;-8.436;2023-09-19T06:28:31;100890.13;;;14.11;100.00
61318;BME280;47201;40.428;-8.436;2023-09-19T06:30:34;100893.47;;;14.21;100.00
61318;BME280;47201;40.428;-8.436;2023-09-19T06:32:35;100883.78;;;14.25;100.00
61318;BME280;47201;40.428;-8.436;2023-09-19T06:34:36;100890.53;;;14.43;100.00
61318;BME280;47201;40.428;-8.436;2023-09-19T06:36:38;100888.75;;;14.47;100.00
61318;BME280;47201;40.428;-8.436;2023-09-19T06:38:39;100891.22;;;14.57;100.00
61318;BME280;47201;40.428;-8.436;2023-09-19T06:40:41;100881.50;;;14.61;100.00
61318;BME280;47201;40.428;-8.436;2023-09-19T06:42:44;100881.47;;;14.64;100.00
61318;BME280;47201;40.428;-8.436;2023-09-19T06:44:49;100885.59;;;14.82;100.00
61318;BME280;47201;40.428;-8.436;2023-09-19T06:46:49;100892.09;;;15.14;100.00
61318;BME280;47201;40.428;-8.436;2023-09-19T06:48:51;100884.09;;;15.66;100.00
61318;BME280;47201;40.428;-8.436;2023-09-19T06:50:53;100890.56;;;16.36;100.00
61318;BME280;47201;40.428;-8.436;2023-09-19T06:52:56;100894.28;;;17.04;100.00
61318;BME280;47201;40.428;-8.436;2023-09-19T06:54:57;100904.34;;;17.87;100.00
61318;BME280;47201;40.428;-8.436;2023-09-19T06:56:58;100905.66;;;18.62;100.00
61318;BME280;47201;40.428;-8.436;2023-09-19T06:58:59;100909.94;;;19.46;100.00
61318;BME280;47201;40.428;-8.436;2023-09-19T07:00:59;100919.59;;;20.22;96.30
61318;BME280;47201;40.428;-8.436;2023-09-19T07:03:01;100921.41;;;20.88;91.00
61318;BME280;47201;40.428;-8.436;2023-09-19T07:05:04;100925.13;;;21.47;88.03
61318;BME280;47201;40.428;-8.436;2023-09-19T07:07:05;100927.78;;;22.08;85.70
61318;BME280;47201;40.428;-8.436;2023-09-19T07:09:08;100931.44;;;22.81;84.36
61318;BME280;47201;40.428;-8.436;2023-09-19T07:11:08;100933.97;;;23.37;82.90
61318;BME280;47201;40.428;-8.436;2023-09-19T07:13:09;100930.84;;;23.98;81.98
61318;BME280;47201;40.428;-8.436;2023-09-19T07:15:11;100940.50;;;24.64;79.88
61318;BME280;47201;40.428;-8.436;2023-09-19T07:17:11;100944.22;;;25.24;80.42
61318;BME280;47201;40.428;-8.436;2023-09-19T07:19:12;100948.81;;;25.96;78.99
61318;BME280;47201;40.428;-8.436;2023-09-19T07:21:15;100942.88;;;26.34;80.12
61318;BME280;47201;40.428;-8.436;2023-09-19T07:23:20;100937.91;;;26.55;80.02
61318;BME280;47201;40.428;-8.436;2023-09-19T07:25:21;100943.63;;;26.36;81.74
61318;BME280;47201;40.428;-8.436;2023-09-19T07:27:22;100931.78;;;25.97;82.37
61318;BME280;47201;40.428;-8.436;2023-09-19T07:29:22;100927.97;;;25.58;83.55
61318;BME280;47201;40.428;-8.436;2023-09-19T07:31:23;100938.81;;;25.40;84.13
61318;BME280;47201;40.428;-8.436;2023-09-19T07:33:26;100942.34;;;25.10;84.67
61318;BME280;47201;40.428;-8.436;2023-09-19T07:35:28;100940.00;;;25.50;84.17
61318;BME280;47201;40.428;-8.436;2023-09-19T07:37:30;100952.53;;;25.50;84.66
61318;BME280;47201;40.428;-8.436;2023-09-19T07:39:33;100947.38;;;25.76;84.03
61318;BME280;47201;40.428;-8.436;2023-09-19T07:41:34;100946.09;;;26.39;82.30
61318;BME280;47201;40.428;-8.436;2023-09-19T07:43:36;100953.38;;;26.37;82.42
61318;BME280;47201;40.428;-8.436;2023-09-19T07:45:39;100956.47;;;26.31;82.91
61318;BME280;47201;40.428;-8.436;2023-09-19T07:47:50;100950.31;;;26.43;82.65
61318;BME280;47201;40.428;-8.436;2023-09-19T07:49:50;100957.78;;;26.38;82.57
61318;BME280;47201;40.428;-8.436;2023-09-19T07:51:52;100950.53;;;26.68;82.95
61318;BME280;47201;40.428;-8.436;2023-09-19T07:53:55;100951.38;;;26.68;82.76
61318;BME280;47201;40.428;-8.436;2023-09-19T07:56:22;100953.44;;;27.32;82.30
61318;BME280;47201;40.428;-8.436;2023-09-19T07:58:23;100955.69;;;27.38;82.30
61318;BME280;47201;40.428;-8.436;2023-09-19T08:00:23;100952.63;;;27.58;82.58
61318;BME280;47201;40.428;-8.436;2023-09-19T08:02:24;100947.84;;;27.35;82.86
61318;BME280;47201;40.428;-8.436;2023-09-19T08:04:25;100951.69;;;27.18;83.94
61318;BME280;47201;40.428;-8.436;2023-09-19T08:06:26;100957.94;;;27.32;82.87
61318;BME280;47201;40.428;-8.436;2023-09-19T08:08:29;100953.00;;;27.38;83.32
61318;BME280;47201;40.428;-8.436;2023-09-19T08:10:30;100962.31;;;27.73;83.02
61318;BME280;47201;40.428;-8.436;2023-09-19T08:12:36;100963.13;;;27.99;83.13
61318;BME280;47201;40.428;-8.436;2023-09-19T08:14:37;100965.66;;;28.64;81.98
61318;BME280;47201;40.428;-8.436;2023-09-19T08:16:39;100961.13;;;29.02;82.45
61318;BME280;47201;40.428;-8.436;2023-09-19T08:18:41;100964.56;;;29.04;82.72
61318;BME280;47201;40.428;-8.436;2023-09-19T08:20:42;100962.38;;;29.09;82.59
61318;BME280;47201;40.428;-8.436;2023-09-19T08:22:47;100957.75;;;29.22;82.75
61318;BME280;47201;40.428;-8.436;2023-09-19T08:24:48;100959.88;;;30.11;82.53
61318;BME280;47201;40.428;-8.436;2023-09-19T08:26:52;100957.63;;;30.39;82.28
61318;BME280;47201;40.428;-8.436;2023-09-19T08:28:53;100969.03;;;30.43;82.38
61318;BME280;47201;40.428;-8.436;2023-09-19T08:30:55;100959.56;;;30.48;82.81
61318;BME280;47201;40.428;-8.436;2023-09-19T08:32:59;100962.19;;;30.38;83.30
61318;BME280;47201;40.428;-8.436;2023-09-19T08:35:03;100969.19;;;30.52;83.23
61318;BME280;47201;40.428;-8.436;2023-09-19T08:37:04;100970.03;;;30.85;83.00
61318;BME280;47201;40.428;-8.436;2023-09-19T08:39:05;100969.72;;;31.54;82.10
61318;BME280;47201;40.428;-8.436;2023-09-19T08:41:07;100969.16;;;32.43;81.83
61318;BME280;47201;40.428;-8.436;2023-09-19T08:43:08;100965.78;;;33.29;80.70
61318;BME280;47201;40.428;-8.436;2023-09-19T08:45:09;100970.97;;;33.90;80.28
61318;BME280;47201;40.428;-8.436;2023-09-19T08:47:16;100972.34;;;34.95;79.18
61318;BME280;47201;40.428;-8.436;2023-09-19T08:49:24;100982.25;;;35.67;78.63
61318;BME280;47201;40.428;-8.436;2023-09-19T08:51:43;100976.50;;;36.48;77.89
61318;BME280;47201;40.428;-8.436;2023-09-19T08:54:01;100986.81;;;35.93;77.95
61318;BME280;47201;40.428;-8.436;2023-09-19T08:56:09;100970.59;;;35.83;78.45
61318;BME280;47201;40.428;-8.436;2023-09-19T08:58:10;100971.09;;;36.13;78.72
61318;BME280;47201;40.428;-8.436;2023-09-19T09:00:14;100976.72;;;36.55;77.90
61318;BME280;47201;40.428;-8.436;2023-09-19T09:02:18;100970.31;;;37.13;77.88
61318;BME280;47201;40.428;-8.436;2023-09-19T09:04:20;100975.22;;;37.35;77.43
61318;BME280;47201;40.428;-8.436;2023-09-19T09:06:22;100974.06;;;37.21;77.88
61318;BME280;47201;40.428;-8.436;2023-09-19T09:08:24;100964.47;;;37.66;77.54
61318;BME280;47201;40.428;-8.436;2023-09-19T09:10:26;100968.41;;;37.64;76.89
61318;BME280;47201;40.428;-8.436;2023-09-19T09:12:29;100968.78;;;38.00;76.08
61318;BME280;47201;40.428;-8.436;2023-09-19T09:14:30;100968.09;;;37.25;77.21
61318;BME280;47201;40.428;-8.436;2023-09-19T09:16:31;100982.38;;;37.60;76.66
61318;BME280;47201;40.428;-8.436;2023-09-19T09:18:32;100975.72;;;37.63;77.10
61318;BME280;47201;40.428;-8.436;2023-09-19T09:20:33;100978.59;;;37.86;77.11
61318;BME280;47201;40.428;-8.436;2023-09-19T09:22:34;100980.03;;;37.41;77.21
61318;BME280;47201;40.428;-8.436;2023-09-19T09:24:36;100979.31;;;37.14;77.24
61318;BME280;47201;40.428;-8.436;2023-09-19T09:26:41;100974.25;;;38.00;76.84
61318;BME280;47201;40.428;-8.436;2023-09-19T09:28:46;100985.47;;;38.05;75.54
61318;BME280;47201;40.428;-8.436;2023-09-19T09:30:51;100973.88;;;38.12;75.48
61318;BME280;47201;40.428;-8.436;2023-09-19T09:33:08;100980.44;;;37.86;75.90
61318;BME280;47201;40.428;-8.436;2023-09-19T09:35:10;100966.63;;;38.27;76.19
61318;BME280;47201;40.428;-8.436;2023-09-19T09:37:15;100973.56;;;38.93;75.40
61318;BME280;47201;40.428;-8.436;2023-09-19T09:39:32;100985.13;;;37.44;76.27
61318;BME280;47201;40.428;-8.436;2023-09-19T09:41:38;100974.81;;;37.87;75.75
61318;BME280;47201;40.428;-8.436;2023-09-19T09:43:40;100963.00;;;38.03;75.84
61318;BME280;47201;40.428;-8.436;2023-09-19T09:45:42;100974.00;;;37.54;76.09
61318;BME280;47201;40.428;-8.436;2023-09-19T09:47:49;100980.69;;;37.51;76.71
61318;BME280;47201;40.428;-8.436;2023-09-19T09:49:56;100976.72;;;37.62;75.73
61318;BME280;47201;40.428;-8.436;2023-09-19T09:52:07;100977.41;;;37.72;76.38
61318;BME280;47201;40.428;-8.436;2023-09-19T09:54:18;100967.41;;;37.07;76.86
61318;BME280;47201;40.428;-8.436;2023-09-19T09:56:22;100966.16;;;37.75;75.66
61318;BME280;47201;40.428;-8.436;2023-09-19T09:58:23;100971.88;;;37.97;76.36
61318;BME280;47201;40.428;-8.436;2023-09-19T10:00:29;100970.72;;;38.31;75.87
61318;BME280;47201;40.428;-8.436;2023-09-19T10:02:42;100972.66;;;37.33;77.07
61318;BME280;47201;40.428;-8.436;2023-09-19T10:04:46;100971.56;;;38.32;75.45
61318;BME280;47201;40.428;-8.436;2023-09-19T10:07:07;100969.97;;;38.06;76.10
61318;BME280;47201;40.428;-8.436;2023-09-19T10:09:11;100965.97;;;37.85;75.91
61318;BME280;47201;40.428;-8.436;2023-09-19T10:11:16;100958.75;;;38.01;75.84
61318;BME280;47201;40.428;-8.436;2023-09-19T10:13:19;100957.09;;;38.54;75.93
61318;BME280;47201;40.428;-8.436;2023-09-19T10:15:26;100943.94;;;37.95;75.45
61318;BME280;47201;40.428;-8.436;2023-09-19T10:17:34;100955.09;;;38.08;75.90
61318;BME280;47201;40.428;-8.436;2023-09-19T10:19:42;100970.31;;;37.38;76.81
61318;BME280;47201;40.428;-8.436;2023-09-19T10:21:47;100958.53;;;38.11;76.26
61318;BME280;47201;40.428;-8.436;2023-09-19T10:23:50;100954.34;;;38.54;75.56
61318;BME280;47201;40.428;-8.436;2023-09-19T10:25:53;100953.88;;;38.51;75.15
61318;BME280;47201;40.428;-8.436;2023-09-19T10:27:54;100949.72;;;37.92;76.01
61318;BME280;47201;40.428;-8.436;2023-09-19T10:30:01;100951.16;;;37.63;76.48
61318;BME280;47201;40.428;-8.436;2023-09-19T10:32:04;100947.00;;;37.92;76.79
61318;BME280;47201;40.428;-8.436;2023-09-19T10:34:09;100943.97;;;37.78;76.76
61318;BME280;47201;40.428;-8.436;2023-09-19T10:36:11;100939.72;;;38.16;75.67
61318;BME280;47201;40.428;-8.436;2023-09-19T10:38:15;100946.00;;;38.56;75.94
61318;BME280;47201;40.428;-8.436;2023-09-19T10:40:19;100940.59;;;38.16;75.96
61318;BME280;47201;40.428;-8.436;2023-09-19T10:42:23;100943.63;;;38.53;75.05